Terminal Aerodrome Forecast
Issued by NWS

Home | Current Version | Previous Version | Text Only | Print | Product List | Glossary On
Versions: 1 2 3 4 5 6 7 8 9 10 11 12
000
FTUS45 KTFX 232348
TAFHLN
TAF
KHLN 232348Z 2400/2424 09008KT P6SM FEW200
     FM241300 25015G30KT P6SM SCT200
     FM241900 27030G40KT P6SM FEW090 SCT200=

USA.gov is the U.S. government's official web portal to all federal, state and local government web resources and services.